sensor_id;sensor_type;location;lat;lon;timestamp;temperature;humidity
46319;DHT22;32042;50.916;2.926;2022-09-17T00:01:01;12.20;99.90
46319;DHT22;32042;50.916;2.926;2022-09-17T00:03:27;12.20;99.90
46319;DHT22;32042;50.916;2.926;2022-09-17T00:06:07;12.30;99.90
46319;DHT22;32042;50.916;2.926;2022-09-17T00:08:35;12.30;99.90
46319;DHT22;32042;50.916;2.926;2022-09-17T00:11:25;12.30;99.90
46319;DHT22;32042;50.916;2.926;2022-09-17T00:13:51;12.30;99.90
46319;DHT22;32042;50.916;2.926;2022-09-17T00:16:28;12.40;99.90
46319;DHT22;32042;50.916;2.926;2022-09-17T00:18:56;12.40;99.90
46319;DHT22;32042;50.916;2.926;2022-09-17T00:21:22;12.40;99.90
46319;DHT22;32042;50.916;2.926;2022-09-17T00:23:53;12.40;99.90
46319;DHT22;32042;50.916;2.926;2022-09-17T00:26:19;12.40;99.90
46319;DHT22;32042;50.916;2.926;2022-09-17T00:28:51;12.40;99.90
46319;DHT22;32042;50.916;2.926;2022-09-17T00:31:18;12.40;99.90
46319;DHT22;32042;50.916;2.926;2022-09-17T00:33:44;12.30;99.90
46319;DHT22;32042;50.916;2.926;2022-09-17T00:36:09;12.30;99.90
46319;DHT22;32042;50.916;2.926;2022-09-17T00:38:36;12.30;99.90
46319;DHT22;32042;50.916;2.926;2022-09-17T00:41:03;12.20;99.90
46319;DHT22;32042;50.916;2.926;2022-09-17T00:43:52;12.10;99.90
46319;DHT22;32042;50.916;2.926;2022-09-17T00:49:08;12.10;99.90
46319;DHT22;32042;50.916;2.926;2022-09-17T00:51:40;12.10;99.90
46319;DHT22;32042;50.916;2.926;2022-09-17T00:54:09;12.10;99.90
46319;DHT22;32042;50.916;2.926;2022-09-17T00:56:38;12.10;99.90
46319;DHT22;32042;50.916;2.926;2022-09-17T00:59:04;12.10;99.90
46319;DHT22;32042;50.916;2.926;2022-09-17T01:01:31;12.10;99.90
46319;DHT22;32042;50.916;2.926;2022-09-17T01:03:57;12.10;99.90
46319;DHT22;32042;50.916;2.926;2022-09-17T01:06:37;12.00;99.90
46319;DHT22;32042;50.916;2.926;2022-09-17T01:14:59;12.00;99.90
46319;DHT22;32042;50.916;2.926;2022-09-17T01:17:46;11.90;99.90
46319;DHT22;32042;50.916;2.926;2022-09-17T01:23:57;11.90;99.90
46319;DHT22;32042;50.916;2.926;2022-09-17T01:39:49;11.90;99.90
46319;DHT22;32042;50.916;2.926;2022-09-17T01:45:07;12.00;99.90
46319;DHT22;32042;50.916;2.926;2022-09-17T01:47:40;12.00;99.90
46319;DHT22;32042;50.916;2.926;2022-09-17T01:50:15;11.90;99.90
46319;DHT22;32042;50.916;2.926;2022-09-17T01:52:43;12.00;99.90
46319;DHT22;32042;50.916;2.926;2022-09-17T01:55:14;12.00;99.90
46319;DHT22;32042;50.916;2.926;2022-09-17T01:57:52;12.00;99.90
46319;DHT22;32042;50.916;2.926;2022-09-17T02:00:19;12.00;99.90
46319;DHT22;32042;50.916;2.926;2022-09-17T02:03:03;12.00;99.90
46319;DHT22;32042;50.916;2.926;2022-09-17T02:08:13;12.10;99.90
46319;DHT22;32042;50.916;2.926;2022-09-17T02:10:44;12.10;99.90
46319;DHT22;32042;50.916;2.926;2022-09-17T02:13:38;12.10;99.90
46319;DHT22;32042;50.916;2.926;2022-09-17T02:16:42;12.10;99.90
46319;DHT22;32042;50.916;2.926;2022-09-17T02:19:12;12.10;99.90
46319;DHT22;32042;50.916;2.926;2022-09-17T02:27:53;12.10;99.90
46319;DHT22;32042;50.916;2.926;2022-09-17T02:30:22;12.00;99.90
46319;DHT22;32042;50.916;2.926;2022-09-17T02:32:49;12.00;99.90
46319;DHT22;32042;50.916;2.926;2022-09-17T02:35:16;12.00;99.90
46319;DHT22;32042;50.916;2.926;2022-09-17T02:37:44;12.00;99.90
46319;DHT22;32042;50.916;2.926;2022-09-17T02:40:14;12.00;99.90
46319;DHT22;32042;50.916;2.926;2022-09-17T02:43:08;11.90;99.90
46319;DHT22;32042;50.916;2.926;2022-09-17T02:46:02;11.90;99.90
46319;DHT22;32042;50.916;2.926;2022-09-17T02:48:51;12.00;99.90
46319;DHT22;32042;50.916;2.926;2022-09-17T02:54:48;12.00;99.90
46319;DHT22;32042;50.916;2.926;2022-09-17T02:57:19;12.00;99.90
46319;DHT22;32042;50.916;2.926;2022-09-17T03:00:06;12.00;99.90
46319;DHT22;32042;50.916;2.926;2022-09-17T03:03:04;12.00;99.90
46319;DHT22;32042;50.916;2.926;2022-09-17T03:05:31;12.00;99.90
46319;DHT22;32042;50.916;2.926;2022-09-17T03:07:59;12.10;99.90
46319;DHT22;32042;50.916;2.926;2022-09-17T03:10:25;12.10;99.90
46319;DHT22;32042;50.916;2.926;2022-09-17T03:12:53;12.10;99.90
46319;DHT22;32042;50.916;2.926;2022-09-17T03:15:19;12.10;99.90
46319;DHT22;32042;50.916;2.926;2022-09-17T03:17:45;12.00;99.90
46319;DHT22;32042;50.916;2.926;2022-09-17T03:20:10;12.00;99.90
46319;DHT22;32042;50.916;2.926;2022-09-17T03:22:36;12.00;99.90
46319;DHT22;32042;50.916;2.926;2022-09-17T03:25:02;12.00;99.90
46319;DHT22;32042;50.916;2.926;2022-09-17T03:27:27;12.00;99.90
46319;DHT22;32042;50.916;2.926;2022-09-17T03:29:53;12.00;99.90
46319;DHT22;32042;50.916;2.926;2022-09-17T03:32:19;12.00;99.90
46319;DHT22;32042;50.916;2.926;2022-09-17T03:34:44;12.00;99.90
46319;DHT22;32042;50.916;2.926;2022-09-17T03:37:11;12.00;99.90
46319;DHT22;32042;50.916;2.926;2022-09-17T03:39:37;12.00;99.90
46319;DHT22;32042;50.916;2.926;2022-09-17T03:42:04;12.00;99.90
46319;DHT22;32042;50.916;2.926;2022-09-17T03:44:29;12.00;99.90
46319;DHT22;32042;50.916;2.926;2022-09-17T03:46:55;12.10;99.90
46319;DHT22;32042;50.916;2.926;2022-09-17T03:49:21;12.10;99.90
46319;DHT22;32042;50.916;2.926;2022-09-17T03:51:48;12.20;99.90
46319;DHT22;32042;50.916;2.926;2022-09-17T03:54:14;12.20;99.90
46319;DHT22;32042;50.916;2.926;2022-09-17T03:56:40;12.20;99.90
46319;DHT22;32042;50.916;2.926;2022-09-17T03:59:05;12.20;99.90
46319;DHT22;32042;50.916;2.926;2022-09-17T04:01:31;12.20;99.90
46319;DHT22;32042;50.916;2.926;2022-09-17T04:03:56;12.30;99.90
46319;DHT22;32042;50.916;2.926;2022-09-17T04:06:22;12.30;99.90
46319;DHT22;32042;50.916;2.926;2022-09-17T04:08:48;12.30;99.90
46319;DHT22;32042;50.916;2.926;2022-09-17T04:11:14;12.30;99.90
46319;DHT22;32042;50.916;2.926;2022-09-17T04:13:39;12.30;99.90
46319;DHT22;32042;50.916;2.926;2022-09-17T04:16:05;12.30;99.90
46319;DHT22;32042;50.916;2.926;2022-09-17T04:18:31;12.40;99.90
46319;DHT22;32042;50.916;2.926;2022-09-17T04:20:56;12.40;99.90
46319;DHT22;32042;50.916;2.926;2022-09-17T04:23:22;12.40;99.90
46319;DHT22;32042;50.916;2.926;2022-09-17T04:25:48;12.40;99.90
46319;DHT22;32042;50.916;2.926;2022-09-17T04:28:14;12.40;99.90
46319;DHT22;32042;50.916;2.926;2022-09-17T04:30:40;12.30;99.90
46319;DHT22;32042;50.916;2.926;2022-09-17T04:33:08;12.30;99.90
46319;DHT22;32042;50.916;2.926;2022-09-17T04:35:34;12.30;99.90
46319;DHT22;32042;50.916;2.926;2022-09-17T04:38:00;12.20;99.90
46319;DHT22;32042;50.916;2.926;2022-09-17T04:40:26;12.20;99.90
46319;DHT22;32042;50.916;2.926;2022-09-17T04:42:56;12.20;99.90
46319;DHT22;32042;50.916;2.926;2022-09-17T04:45:24;12.20;99.90
46319;DHT22;32042;50.916;2.926;2022-09-17T04:47:50;12.20;99.90
46319;DHT22;32042;50.916;2.926;2022-09-17T04:50:20;12.20;99.90
46319;DHT22;32042;50.916;2.926;2022-09-17T04:52:47;12.20;99.90
46319;DHT22;32042;50.916;2.926;2022-09-17T04:55:13;12.20;99.90
46319;DHT22;32042;50.916;2.926;2022-09-17T04:57:48;12.20;99.90
46319;DHT22;32042;50.916;2.926;2022-09-17T05:00:15;12.20;99.90
46319;DHT22;32042;50.916;2.926;2022-09-17T05:02:44;12.10;99.90
46319;DHT22;32042;50.916;2.926;2022-09-17T05:05:10;12.10;99.90
46319;DHT22;32042;50.916;2.926;2022-09-17T05:07:39;12.10;99.90
46319;DHT22;32042;50.916;2.926;2022-09-17T05:10:06;12.10;99.90
46319;DHT22;32042;50.916;2.926;2022-09-17T05:12:32;12.10;99.90
46319;DHT22;32042;50.916;2.926;2022-09-17T05:14:58;12.00;99.90
46319;DHT22;32042;50.916;2.926;2022-09-17T05:17:23;12.00;99.90
46319;DHT22;32042;50.916;2.926;2022-09-17T05:19:49;11.90;99.90
46319;DHT22;32042;50.916;2.926;2022-09-17T05:22:15;11.90;99.90
46319;DHT22;32042;50.916;2.926;2022-09-17T05:24:41;11.90;99.90
46319;DHT22;32042;50.916;2.926;2022-09-17T05:27:07;11.90;99.90
46319;DHT22;32042;50.916;2.926;2022-09-17T05:29:33;11.90;99.90
46319;DHT22;32042;50.916;2.926;2022-09-17T05:31:59;11.90;99.90
46319;DHT22;32042;50.916;2.926;2022-09-17T05:34:25;11.90;99.90
46319;DHT22;32042;50.916;2.926;2022-09-17T05:36:50;11.90;99.90
46319;DHT22;32042;50.916;2.926;2022-09-17T05:39:16;11.90;99.90
46319;DHT22;32042;50.916;2.926;2022-09-17T05:41:41;11.90;99.90
46319;DHT22;32042;50.916;2.926;2022-09-17T05:44:07;11.90;99.90
46319;DHT22;32042;50.916;2.926;2022-09-17T05:46:33;11.90;99.90
46319;DHT22;32042;50.916;2.926;2022-09-17T05:48:58;11.90;99.90
46319;DHT22;32042;50.916;2.926;2022-09-17T05:51:24;11.90;99.90
46319;DHT22;32042;50.916;2.926;2022-09-17T05:53:50;11.80;99.90
46319;DHT22;32042;50.916;2.926;2022-09-17T05:56:18;11.90;99.90
46319;DHT22;32042;50.916;2.926;2022-09-17T05:58:44;11.90;99.90
46319;DHT22;32042;50.916;2.926;2022-09-17T06:01:09;11.90;99.90
46319;DHT22;32042;50.916;2.926;2022-09-17T06:03:41;11.90;99.90
46319;DHT22;32042;50.916;2.926;2022-09-17T06:06:06;11.90;99.90
46319;DHT22;32042;50.916;2.926;2022-09-17T06:08:33;11.90;99.90
46319;DHT22;32042;50.916;2.926;2022-09-17T06:11:04;12.00;99.90
46319;DHT22;32042;50.916;2.926;2022-09-17T06:13:31;12.00;99.90
46319;DHT22;32042;50.916;2.926;2022-09-17T06:15:56;12.00;99.90
46319;DHT22;32042;50.916;2.926;2022-09-17T06:18:23;12.00;99.90
46319;DHT22;32042;50.916;2.926;2022-09-17T06:23:22;12.00;99.90
46319;DHT22;32042;50.916;2.926;2022-09-17T06:25:56;12.00;99.90
46319;DHT22;32042;50.916;2.926;2022-09-17T06:28:22;12.00;99.90
46319;DHT22;32042;50.916;2.926;2022-09-17T06:30:48;12.00;99.90
46319;DHT22;32042;50.916;2.926;2022-09-17T06:33:17;12.00;99.90
46319;DHT22;32042;50.916;2.926;2022-09-17T06:35:42;12.00;99.90
46319;DHT22;32042;50.916;2.926;2022-09-17T06:38:08;12.10;99.90
46319;DHT22;32042;50.916;2.926;2022-09-17T06:40:34;12.10;99.90
46319;DHT22;32042;50.916;2.926;2022-09-17T06:43:00;12.10;99.90
46319;DHT22;32042;50.916;2.926;2022-09-17T06:45:26;12.20;99.90
46319;DHT22;32042;50.916;2.926;2022-09-17T06:47:52;12.20;99.90
46319;DHT22;32042;50.916;2.926;2022-09-17T06:50:18;12.30;99.90
46319;DHT22;32042;50.916;2.926;2022-09-17T06:52:51;12.40;99.90
46319;DHT22;32042;50.916;2.926;2022-09-17T06:55:17;12.50;99.90
46319;DHT22;32042;50.916;2.926;2022-09-17T06:57:43;12.60;99.90
46319;DHT22;32042;50.916;2.926;2022-09-17T07:00:10;12.70;99.90
46319;DHT22;32042;50.916;2.926;2022-09-17T07:02:36;12.80;99.90
46319;DHT22;32042;50.916;2.926;2022-09-17T07:05:03;12.90;99.90
46319;DHT22;32042;50.916;2.926;2022-09-17T07:07:28;13.00;99.90
46319;DHT22;32042;50.916;2.926;2022-09-17T07:09:54;13.20;99.90
46319;DHT22;32042;50.916;2.926;2022-09-17T07:12:20;13.30;99.90
46319;DHT22;32042;50.916;2.926;2022-09-17T07:14:46;13.40;99.90
46319;DHT22;32042;50.916;2.926;2022-09-17T07:17:14;13.50;99.90
46319;DHT22;32042;50.916;2.926;2022-09-17T07:19:40;13.50;99.90
46319;DHT22;32042;50.916;2.926;2022-09-17T07:22:06;13.60;99.90
46319;DHT22;32042;50.916;2.926;2022-09-17T07:24:33;13.70;99.90
46319;DHT22;32042;50.916;2.926;2022-09-17T07:26:59;13.80;99.90
46319;DHT22;32042;50.916;2.926;2022-09-17T07:29:25;13.90;99.90
46319;DHT22;32042;50.916;2.926;2022-09-17T07:31:54;13.90;99.90
46319;DHT22;32042;50.916;2.926;2022-09-17T07:34:20;14.00;99.90
46319;DHT22;32042;50.916;2.926;2022-09-17T07:36:45;14.00;99.90
46319;DHT22;32042;50.916;2.926;2022-09-17T07:39:11;13.90;99.90
46319;DHT22;32042;50.916;2.926;2022-09-17T07:41:40;13.80;99.90
46319;DHT22;32042;50.916;2.926;2022-09-17T07:44:06;13.70;99.90
46319;DHT22;32042;50.916;2.926;2022-09-17T07:46:32;13.90;99.90
46319;DHT22;32042;50.916;2.926;2022-09-17T07:48:58;14.00;99.90
46319;DHT22;32042;50.916;2.926;2022-09-17T07:51:26;14.10;99.90
46319;DHT22;32042;50.916;2.926;2022-09-17T07:53:56;14.10;99.90
46319;DHT22;32042;50.916;2.926;2022-09-17T07:56:23;14.00;99.90
46319;DHT22;32042;50.916;2.926;2022-09-17T07:58:49;14.00;99.90
46319;DHT22;32042;50.916;2.926;2022-09-17T08:01:16;14.10;99.90
46319;DHT22;32042;50.916;2.926;2022-09-17T08:03:46;14.10;99.90
46319;DHT22;32042;50.916;2.926;2022-09-17T08:06:14;14.00;99.90
46319;DHT22;32042;50.916;2.926;2022-09-17T08:08:40;13.90;99.90
46319;DHT22;32042;50.916;2.926;2022-09-17T08:11:11;13.60;99.90
46319;DHT22;32042;50.916;2.926;2022-09-17T08:13:38;13.40;99.90
46319;DHT22;32042;50.916;2.926;2022-09-17T08:16:07;13.10;99.90
46319;DHT22;32042;50.916;2.926;2022-09-17T08:18:33;13.00;99.90
46319;DHT22;32042;50.916;2.926;2022-09-17T08:21:02;12.90;99.90
46319;DHT22;32042;50.916;2.926;2022-09-17T08:23:29;13.00;99.90
46319;DHT22;32042;50.916;2.926;2022-09-17T08:25:57;13.00;99.90
46319;DHT22;32042;50.916;2.926;2022-09-17T08:28:24;13.20;99.90
46319;DHT22;32042;50.916;2.926;2022-09-17T08:30:54;13.40;99.90
46319;DHT22;32042;50.916;2.926;2022-09-17T08:33:24;13.50;99.90
46319;DHT22;32042;50.916;2.926;2022-09-17T08:35:53;13.70;99.90
46319;DHT22;32042;50.916;2.926;2022-09-17T08:38:20;13.90;99.90
46319;DHT22;32042;50.916;2.926;2022-09-17T08:46:33;14.30;99.90
46319;DHT22;32042;50.916;2.926;2022-09-17T08:49:15;14.40;99.90
46319;DHT22;32042;50.916;2.926;2022-09-17T08:54:41;14.60;99.90
46319;DHT22;32042;50.916;2.926;2022-09-17T08:57:38;14.70;99.90
46319;DHT22;32042;50.916;2.926;2022-09-17T09:00:16;14.70;99.90
46319;DHT22;32042;50.916;2.926;2022-09-17T09:03:09;14.60;99.90
46319;DHT22;32042;50.916;2.926;2022-09-17T09:05:46;14.50;99.90
46319;DHT22;32042;50.916;2.926;2022-09-17T09:08:21;14.50;99.90
46319;DHT22;32042;50.916;2.926;2022-09-17T09:10:52;14.50;99.90
46319;DHT22;32042;50.916;2.926;2022-09-17T09:13:23;14.50;99.90
46319;DHT22;32042;50.916;2.926;2022-09-17T09:16:01;14.60;99.90
46319;DHT22;32042;50.916;2.926;2022-09-17T09:18:35;14.60;99.90
46319;DHT22;32042;50.916;2.926;2022-09-17T09:23:52;14.80;99.90
46319;DHT22;32042;50.916;2.926;2022-09-17T09:26:20;14.80;99.90
46319;DHT22;32042;50.916;2.926;2022-09-17T09:31:45;14.40;99.90
46319;DHT22;32042;50.916;2.926;2022-09-17T09:34:13;14.50;99.90
46319;DHT22;32042;50.916;2.926;2022-09-17T09:36:40;14.60;99.90
46319;DHT22;32042;50.916;2.926;2022-09-17T09:39:26;14.80;99.90
46319;DHT22;32042;50.916;2.926;2022-09-17T09:42:06;15.10;99.90
46319;DHT22;32042;50.916;2.926;2022-09-17T09:44:35;15.20;99.90
46319;DHT22;32042;50.916;2.926;2022-09-17T09:47:16;15.30;99.90
46319;DHT22;32042;50.916;2.926;2022-09-17T09:50:07;15.30;99.90
46319;DHT22;32042;50.916;2.926;2022-09-17T09:55:57;15.20;99.90
46319;DHT22;32042;50.916;2.926;2022-09-17T09:58:37;15.00;99.90
46319;DHT22;32042;50.916;2.926;2022-09-17T10:01:18;15.00;99.90
46319;DHT22;32042;50.916;2.926;2022-09-17T10:03:51;15.00;99.90
46319;DHT22;32042;50.916;2.926;2022-09-17T10:06:17;15.00;99.90
46319;DHT22;32042;50.916;2.926;2022-09-17T10:11:31;15.00;99.90
46319;DHT22;32042;50.916;2.926;2022-09-17T10:14:36;15.10;99.90
46319;DHT22;32042;50.916;2.926;2022-09-17T10:19:39;15.10;99.90
46319;DHT22;32042;50.916;2.926;2022-09-17T10:22:18;15.10;99.90
46319;DHT22;32042;50.916;2.926;2022-09-17T10:24:47;15.10;99.90
46319;DHT22;32042;50.916;2.926;2022-09-17T10:27:16;15.30;99.90
46319;DHT22;32042;50.916;2.926;2022-09-17T10:29:44;15.40;99.90
46319;DHT22;32042;50.916;2.926;2022-09-17T10:32:15;15.50;99.90
46319;DHT22;32042;50.916;2.926;2022-09-17T10:34:56;15.40;99.90
46319;DHT22;32042;50.916;2.926;2022-09-17T10:37:44;15.40;99.90
46319;DHT22;32042;50.916;2.926;2022-09-17T10:42:49;15.50;99.90
46319;DHT22;32042;50.916;2.926;2022-09-17T10:45:24;15.60;99.90
46319;DHT22;32042;50.916;2.926;2022-09-17T10:47:50;15.60;99.90
46319;DHT22;32042;50.916;2.926;2022-09-17T10:50:28;15.70;99.90
46319;DHT22;32042;50.916;2.926;2022-09-17T10:52:59;15.80;99.90
46319;DHT22;32042;50.916;2.926;2022-09-17T11:04:56;15.90;99.90
46319;DHT22;32042;50.916;2.926;2022-09-17T11:15:01;15.50;99.90
46319;DHT22;32042;50.916;2.926;2022-09-17T11:17:50;15.40;99.90
46319;DHT22;32042;50.916;2.926;2022-09-17T11:21:02;15.60;99.90
46319;DHT22;32042;50.916;2.926;2022-09-17T11:26:43;16.10;99.90
46319;DHT22;32042;50.916;2.926;2022-09-17T11:37:27;15.90;99.90
46319;DHT22;32042;50.916;2.926;2022-09-17T11:42:29;16.10;99.90
46319;DHT22;32042;50.916;2.926;2022-09-17T11:45:16;16.00;99.90
46319;DHT22;32042;50.916;2.926;2022-09-17T11:50:20;16.10;99.90
46319;DHT22;32042;50.916;2.926;2022-09-17T11:53:13;15.90;99.90
46319;DHT22;32042;50.916;2.926;2022-09-17T11:55:59;15.90;99.90
46319;DHT22;32042;50.916;2.926;2022-09-17T11:59:13;15.90;99.90
46319;DHT22;32042;50.916;2.926;2022-09-17T12:01:44;16.20;99.90
46319;DHT22;32042;50.916;2.926;2022-09-17T12:05:04;16.20;99.90
46319;DHT22;32042;50.916;2.926;2022-09-17T12:07:26;16.10;99.90
46319;DHT22;32042;50.916;2.926;2022-09-17T12:09:58;16.00;99.90
46319;DHT22;32042;50.916;2.926;2022-09-17T12:12:26;16.10;99.90
46319;DHT22;32042;50.916;2.926;2022-09-17T12:14:57;16.20;99.90
46319;DHT22;32042;50.916;2.926;2022-09-17T12:17:30;16.20;99.90
46319;DHT22;32042;50.916;2.926;2022-09-17T12:20:07;16.40;99.90
46319;DHT22;32042;50.916;2.926;2022-09-17T12:22:38;16.40;99.90
46319;DHT22;32042;50.916;2.926;2022-09-17T12:25:11;16.10;99.90
46319;DHT22;32042;50.916;2.926;2022-09-17T12:30:19;15.80;99.90
46319;DHT22;32042;50.916;2.926;2022-09-17T12:41:31;15.80;99.90
46319;DHT22;32042;50.916;2.926;2022-09-17T12:51:58;16.40;99.90
46319;DHT22;32042;50.916;2.926;2022-09-17T13:00:24;16.10;99.90
46319;DHT22;32042;50.916;2.926;2022-09-17T13:16:51;16.10;99.90
46319;DHT22;32042;50.916;2.926;2022-09-17T13:20:02;15.80;99.90
46319;DHT22;32042;50.916;2.926;2022-09-17T13:22:30;15.80;99.90
46319;DHT22;32042;50.916;2.926;2022-09-17T13:25:09;15.80;99.90
46319;DHT22;32042;50.916;2.926;2022-09-17T13:27:37;16.00;99.90
46319;DHT22;32042;50.916;2.926;2022-09-17T13:30:07;16.20;99.90
46319;DHT22;32042;50.916;2.926;2022-09-17T13:40:32;16.70;99.90
46319;DHT22;32042;50.916;2.926;2022-09-17T13:43:09;16.50;99.90
46319;DHT22;32042;50.916;2.926;2022-09-17T13:48:26;16.70;99.90
46319;DHT22;32042;50.916;2.926;2022-09-17T13:50:53;16.70;99.90
46319;DHT22;32042;50.916;2.926;2022-09-17T13:53:20;16.80;99.90
46319;DHT22;32042;50.916;2.926;2022-09-17T13:55:57;16.70;99.90
46319;DHT22;32042;50.916;2.926;2022-09-17T13:58:30;16.40;99.90
46319;DHT22;32042;50.916;2.926;2022-09-17T14:01:12;16.20;99.90
46319;DHT22;32042;50.916;2.926;2022-09-17T14:08:47;15.80;99.90
46319;DHT22;32042;50.916;2.926;2022-09-17T14:19:02;15.80;99.90
46319;DHT22;32042;50.916;2.926;2022-09-17T14:21:31;15.60;99.90
46319;DHT22;32042;50.916;2.926;2022-09-17T14:24:00;15.60;99.90
46319;DHT22;32042;50.916;2.926;2022-09-17T14:31:45;15.20;99.90
46319;DHT22;32042;50.916;2.926;2022-09-17T14:34:21;15.20;99.90
46319;DHT22;32042;50.916;2.926;2022-09-17T14:36:47;15.10;99.90
46319;DHT22;32042;50.916;2.926;2022-09-17T14:39:23;15.00;99.90
46319;DHT22;32042;50.916;2.926;2022-09-17T14:41:50;14.90;99.90
46319;DHT22;32042;50.916;2.926;2022-09-17T14:44:19;14.80;99.90
46319;DHT22;32042;50.916;2.926;2022-09-17T14:47:07;14.90;99.90
46319;DHT22;32042;50.916;2.926;2022-09-17T14:49:37;14.90;99.90
46319;DHT22;32042;50.916;2.926;2022-09-17T14:52:27;14.90;99.90
46319;DHT22;32042;50.916;2.926;2022-09-17T14:55:22;14.90;99.90
46319;DHT22;32042;50.916;2.926;2022-09-17T14:57:56;14.90;99.90
46319;DHT22;32042;50.916;2.926;2022-09-17T15:00:33;14.90;99.90
46319;DHT22;32042;50.916;2.926;2022-09-17T15:03:00;14.90;99.90
46319;DHT22;32042;50.916;2.926;2022-09-17T15:05:33;14.80;99.90
46319;DHT22;32042;50.916;2.926;2022-09-17T15:08:22;14.80;99.90
46319;DHT22;32042;50.916;2.926;2022-09-17T15:13:18;14.80;99.90
46319;DHT22;32042;50.916;2.926;2022-09-17T15:18:43;14.80;99.90
46319;DHT22;32042;50.916;2.926;2022-09-17T15:21:33;14.80;99.90
46319;DHT22;32042;50.916;2.926;2022-09-17T15:24:33;14.90;99.90
46319;DHT22;32042;50.916;2.926;2022-09-17T15:27:29;14.90;99.90
46319;DHT22;32042;50.916;2.926;2022-09-17T15:30:05;15.00;99.90
46319;DHT22;32042;50.916;2.926;2022-09-17T15:32:34;14.90;99.90
46319;DHT22;32042;50.916;2.926;2022-09-17T15:35:17;15.10;99.90
46319;DHT22;32042;50.916;2.926;2022-09-17T15:40:30;15.70;99.90
46319;DHT22;32042;50.916;2.926;2022-09-17T15:45:37;15.70;99.90
46319;DHT22;32042;50.916;2.926;2022-09-17T15:48:15;15.80;99.90
46319;DHT22;32042;50.916;2.926;2022-09-17T15:50:55;15.90;99.90
46319;DHT22;32042;50.916;2.926;2022-09-17T15:53:27;16.00;99.90
46319;DHT22;32042;50.916;2.926;2022-09-17T15:58:28;16.30;99.90
46319;DHT22;32042;50.916;2.926;2022-09-17T16:08:58;16.30;99.90
46319;DHT22;32042;50.916;2.926;2022-09-17T16:11:31;16.30;99.90
46319;DHT22;32042;50.916;2.926;2022-09-17T16:13:59;16.30;99.90
46319;DHT22;32042;50.916;2.926;2022-09-17T16:16:42;16.40;99.90
46319;DHT22;32042;50.916;2.926;2022-09-17T16:19:09;16.40;99.90
46319;DHT22;32042;50.916;2.926;2022-09-17T16:21:34;16.40;99.90
46319;DHT22;32042;50.916;2.926;2022-09-17T16:24:00;16.40;99.90
46319;DHT22;32042;50.916;2.926;2022-09-17T16:26:31;16.30;99.90
46319;DHT22;32042;50.916;2.926;2022-09-17T16:29:02;16.10;99.90
46319;DHT22;32042;50.916;2.926;2022-09-17T16:31:29;16.00;99.90
46319;DHT22;32042;50.916;2.926;2022-09-17T16:33:55;15.90;99.90
46319;DHT22;32042;50.916;2.926;2022-09-17T16:36:21;15.90;99.90
46319;DHT22;32042;50.916;2.926;2022-09-17T16:38:53;16.00;99.90
46319;DHT22;32042;50.916;2.926;2022-09-17T16:41:19;15.90;99.90
46319;DHT22;32042;50.916;2.926;2022-09-17T16:43:44;16.00;99.90
46319;DHT22;32042;50.916;2.926;2022-09-17T16:46:10;16.00;99.90
46319;DHT22;32042;50.916;2.926;2022-09-17T16:48:37;15.90;99.90
46319;DHT22;32042;50.916;2.926;2022-09-17T16:51:07;16.10;99.90
46319;DHT22;32042;50.916;2.926;2022-09-17T16:53:33;16.20;99.90
46319;DHT22;32042;50.916;2.926;2022-09-17T16:55:59;16.30;99.90
46319;DHT22;32042;50.916;2.926;2022-09-17T16:58:25;16.30;99.90
46319;DHT22;32042;50.916;2.926;2022-09-17T17:00:51;16.40;99.90
46319;DHT22;32042;50.916;2.926;2022-09-17T17:03:17;16.40;99.90
46319;DHT22;32042;50.916;2.926;2022-09-17T17:05:42;16.50;99.90
46319;DHT22;32042;50.916;2.926;2022-09-17T17:08:08;16.30;99.90
46319;DHT22;32042;50.916;2.926;2022-09-17T17:10:36;16.30;99.90
46319;DHT22;32042;50.916;2.926;2022-09-17T17:13:03;16.10;99.90
46319;DHT22;32042;50.916;2.926;2022-09-17T17:15:29;16.00;99.90
46319;DHT22;32042;50.916;2.926;2022-09-17T17:17:54;16.00;99.90
46319;DHT22;32042;50.916;2.926;2022-09-17T17:20:20;16.10;99.90
46319;DHT22;32042;50.916;2.926;2022-09-17T17:22:46;16.00;99.90
46319;DHT22;32042;50.916;2.926;2022-09-17T17:25:13;15.80;99.90
46319;DHT22;32042;50.916;2.926;2022-09-17T17:27:39;15.60;99.90
46319;DHT22;32042;50.916;2.926;2022-09-17T17:30:07;15.30;99.90
46319;DHT22;32042;50.916;2.926;2022-09-17T17:32:34;15.20;99.90
46319;DHT22;32042;50.916;2.926;2022-09-17T17:35:01;15.00;99.90
46319;DHT22;32042;50.916;2.926;2022-09-17T17:37:27;14.80;99.90
46319;DHT22;32042;50.916;2.926;2022-09-17T17:39:53;14.70;99.90
46319;DHT22;32042;50.916;2.926;2022-09-17T17:42:20;14.50;99.90
46319;DHT22;32042;50.916;2.926;2022-09-17T17:44:46;14.40;99.90
46319;DHT22;32042;50.916;2.926;2022-09-17T17:47:12;14.30;99.90
46319;DHT22;32042;50.916;2.926;2022-09-17T17:49:38;14.20;99.90
46319;DHT22;32042;50.916;2.926;2022-09-17T17:52:03;14.10;99.90
46319;DHT22;32042;50.916;2.926;2022-09-17T17:54:29;14.00;99.90
46319;DHT22;32042;50.916;2.926;2022-09-17T17:56:55;13.90;99.90
46319;DHT22;32042;50.916;2.926;2022-09-17T17:59:21;13.80;99.90
46319;DHT22;32042;50.916;2.926;2022-09-17T18:01:46;13.80;99.90
46319;DHT22;32042;50.916;2.926;2022-09-17T18:04:12;13.70;99.90
46319;DHT22;32042;50.916;2.926;2022-09-17T18:06:38;13.60;99.90
46319;DHT22;32042;50.916;2.926;2022-09-17T18:09:04;13.50;99.90
46319;DHT22;32042;50.916;2.926;2022-09-17T18:11:32;13.50;99.90
46319;DHT22;32042;50.916;2.926;2022-09-17T18:13:58;13.40;99.90
46319;DHT22;32042;50.916;2.926;2022-09-17T18:16:25;13.30;99.90
46319;DHT22;32042;50.916;2.926;2022-09-17T18:18:51;13.30;99.90
46319;DHT22;32042;50.916;2.926;2022-09-17T18:21:21;13.30;99.90
46319;DHT22;32042;50.916;2.926;2022-09-17T18:23:48;13.20;99.90
46319;DHT22;32042;50.916;2.926;2022-09-17T18:26:22;13.20;99.90
46319;DHT22;32042;50.916;2.926;2022-09-17T18:28:48;13.10;99.90
46319;DHT22;32042;50.916;2.926;2022-09-17T18:31:25;13.10;99.90
46319;DHT22;32042;50.916;2.926;2022-09-17T18:34:03;13.10;99.90
46319;DHT22;32042;50.916;2.926;2022-09-17T18:36:31;13.00;99.90
46319;DHT22;32042;50.916;2.926;2022-09-17T18:39:02;13.00;99.90
46319;DHT22;32042;50.916;2.926;2022-09-17T18:41:31;13.00;99.90
46319;DHT22;32042;50.916;2.926;2022-09-17T18:43:57;12.90;99.90
46319;DHT22;32042;50.916;2.926;2022-09-17T18:46:26;12.90;99.90
46319;DHT22;32042;50.916;2.926;2022-09-17T18:48:52;12.90;99.90
46319;DHT22;32042;50.916;2.926;2022-09-17T18:51:19;12.90;99.90
46319;DHT22;32042;50.916;2.926;2022-09-17T18:53:44;12.90;99.90
46319;DHT22;32042;50.916;2.926;2022-09-17T18:56:23;12.80;99.90
46319;DHT22;32042;50.916;2.926;2022-09-17T18:58:54;12.70;99.90
46319;DHT22;32042;50.916;2.926;2022-09-17T19:01:23;12.70;99.90
46319;DHT22;32042;50.916;2.926;2022-09-17T19:03:49;12.60;99.90